Waterloo, Texas
Current Conditions -  °F | °C
As of 8:55 PM on Monday 20 Oct 2014 (Local Time) from KGRK Reporting Station
Scattered Clouds Scattered Clouds  
Wind Chill: 72°   Ceiling: Unl
Heat Index: 72°   Visibility: 7mi
Dew Point: 57°   Wind: 8mph
Humidity: 60%   Direction: 90°E
Pressure: 30.04"   Gusts: NA
Location:  30.5793°N, 97.5096°W
Report Text: KGRK 210155Z 09007KT 7SM SCT200 22/14 A3004 RMK SLP172
Loading
Personal Weather Stations






























Interactive Weather Map
Tropical Storm Tracking
New forecast layout! Learn more

10-Day Weather Forecast

Advertisements
Track Severe Weather on mobile